KPRX/PRX METAR and TAF weather

Enter ICAO airport designator
Station Type Date Time Source
KPRX METAR 2021/09/27 06:56 UTC NOAA

KPRX 270656Z AUTO 14005KT 10SM CLR 18/14 A3002 RMK AO2 SLP173 T01830139 PNO $


Station Type Date Time Source
KPRX Decoded METAR 2021/09/27 06:56 UTC NOAA

Paris / Cox Field, TX, United States (KPRX) 33-38N 095-27W
Sep 27, 2021 - 02:56 AM EDT / 2021.09.27 0656 UTC
Wind: from the SE (140 degrees) at 6 MPH (5 KT):0
Visibility: 10 mile(s):0
Sky conditions: clear
Temperature: 64.9 F (18.3 C)
Dew Point: 57.0 F (13.9 C)
Relative Humidity: 75%
Pressure (altimeter): 30.02 in. Hg (1016 hPa)
ob: KPRX 270656Z AUTO 14005KT 10SM CLR 18/14 A3002 RMK AO2 SLP173 T01830139 PNO
cycle: 7

Station Type Date Time Source
KPRX TAF UTC NOAA

Error!

Example: see airport list